sensor_id;sensor_type;location;lat;lon;timestamp;P1;durP1;ratioP1;P2;durP2;ratioP2
77876;SDS011;67251;50.844;7.978;2023-04-25T00:00:28;7.40;;;2.10;;
77876;SDS011;67251;50.844;7.978;2023-04-25T00:02:53;6.13;;;2.20;;
77876;SDS011;67251;50.844;7.978;2023-04-25T00:05:20;6.65;;;2.10;;
77876;SDS011;67251;50.844;7.978;2023-04-25T00:07:48;8.40;;;2.50;;
77876;SDS011;67251;50.844;7.978;2023-04-25T00:10:14;6.78;;;2.28;;
77876;SDS011;67251;50.844;7.978;2023-04-25T00:12:40;9.13;;;2.72;;
77876;SDS011;67251;50.844;7.978;2023-04-25T00:15:06;8.20;;;2.15;;
77876;SDS011;67251;50.844;7.978;2023-04-25T00:17:32;9.07;;;2.17;;
77876;SDS011;67251;50.844;7.978;2023-04-25T00:19:57;5.82;;;2.22;;
77876;SDS011;67251;50.844;7.978;2023-04-25T00:22:23;4.28;;;1.98;;
77876;SDS011;67251;50.844;7.978;2023-04-25T00:24:48;10.57;;;2.30;;
77876;SDS011;67251;50.844;7.978;2023-04-25T00:27:14;8.10;;;2.25;;
77876;SDS011;67251;50.844;7.978;2023-04-25T00:29:39;5.60;;;2.00;;
77876;SDS011;67251;50.844;7.978;2023-04-25T00:32:05;7.10;;;1.95;;
77876;SDS011;67251;50.844;7.978;2023-04-25T00:34:30;5.68;;;2.13;;
77876;SDS011;67251;50.844;7.978;2023-04-25T00:36:55;5.93;;;1.80;;
77876;SDS011;67251;50.844;7.978;2023-04-25T00:39:21;8.95;;;2.28;;
77876;SDS011;67251;50.844;7.978;2023-04-25T00:41:47;9.88;;;2.20;;
77876;SDS011;67251;50.844;7.978;2023-04-25T00:44:13;5.43;;;2.28;;
77876;SDS011;67251;50.844;7.978;2023-04-25T00:46:41;7.38;;;2.15;;
77876;SDS011;67251;50.844;7.978;2023-04-25T00:49:07;8.82;;;1.88;;
77876;SDS011;67251;50.844;7.978;2023-04-25T00:51:33;6.63;;;2.33;;
77876;SDS011;67251;50.844;7.978;2023-04-25T00:53:59;6.22;;;2.05;;
77876;SDS011;67251;50.844;7.978;2023-04-25T00:56:25;6.13;;;2.45;;
77876;SDS011;67251;50.844;7.978;2023-04-25T00:58:52;8.32;;;2.58;;
77876;SDS011;67251;50.844;7.978;2023-04-25T01:01:21;11.32;;;3.03;;
77876;SDS011;67251;50.844;7.978;2023-04-25T01:03:47;8.32;;;2.50;;
77876;SDS011;67251;50.844;7.978;2023-04-25T01:06:15;9.15;;;2.53;;
77876;SDS011;67251;50.844;7.978;2023-04-25T01:08:41;10.07;;;2.97;;
77876;SDS011;67251;50.844;7.978;2023-04-25T01:11:06;6.78;;;2.60;;
77876;SDS011;67251;50.844;7.978;2023-04-25T01:13:32;6.93;;;2.40;;
77876;SDS011;67251;50.844;7.978;2023-04-25T01:15:58;6.93;;;2.92;;
77876;SDS011;67251;50.844;7.978;2023-04-25T01:18:24;6.43;;;2.47;;
77876;SDS011;67251;50.844;7.978;2023-04-25T01:20:53;9.00;;;2.50;;
77876;SDS011;67251;50.844;7.978;2023-04-25T01:23:22;8.93;;;2.58;;
77876;SDS011;67251;50.844;7.978;2023-04-25T01:25:48;7.05;;;2.55;;
77876;SDS011;67251;50.844;7.978;2023-04-25T01:28:14;10.65;;;2.55;;
77876;SDS011;67251;50.844;7.978;2023-04-25T01:30:40;7.43;;;2.70;;
77876;SDS011;67251;50.844;7.978;2023-04-25T01:33:06;8.23;;;2.33;;
77876;SDS011;67251;50.844;7.978;2023-04-25T01:35:33;6.63;;;2.75;;
77876;SDS011;67251;50.844;7.978;2023-04-25T01:37:58;8.27;;;2.65;;
77876;SDS011;67251;50.844;7.978;2023-04-25T01:40:25;5.47;;;2.25;;
77876;SDS011;67251;50.844;7.978;2023-04-25T01:42:52;7.13;;;2.47;;
77876;SDS011;67251;50.844;7.978;2023-04-25T01:45:17;10.80;;;3.00;;
77876;SDS011;67251;50.844;7.978;2023-04-25T01:47:43;7.88;;;2.65;;
77876;SDS011;67251;50.844;7.978;2023-04-25T01:53:48;9.60;;;2.40;;
77876;SDS011;67251;50.844;7.978;2023-04-25T01:56:14;9.90;;;2.80;;
77876;SDS011;67251;50.844;7.978;2023-04-25T01:58:39;9.68;;;2.75;;
77876;SDS011;67251;50.844;7.978;2023-04-25T02:01:05;6.20;;;2.83;;
77876;SDS011;67251;50.844;7.978;2023-04-25T02:03:31;6.15;;;2.30;;
77876;SDS011;67251;50.844;7.978;2023-04-25T02:05:57;7.88;;;2.90;;
77876;SDS011;67251;50.844;7.978;2023-04-25T02:08:22;7.22;;;2.38;;
77876;SDS011;67251;50.844;7.978;2023-04-25T02:10:48;9.75;;;3.33;;
77876;SDS011;67251;50.844;7.978;2023-04-25T02:13:13;7.82;;;2.83;;
77876;SDS011;67251;50.844;7.978;2023-04-25T02:15:39;8.23;;;2.85;;
77876;SDS011;67251;50.844;7.978;2023-04-25T02:18:04;8.77;;;3.22;;
77876;SDS011;67251;50.844;7.978;2023-04-25T02:20:31;9.57;;;3.22;;
77876;SDS011;67251;50.844;7.978;2023-04-25T02:22:56;6.57;;;2.65;;
77876;SDS011;67251;50.844;7.978;2023-04-25T02:25:22;7.95;;;2.75;;
77876;SDS011;67251;50.844;7.978;2023-04-25T02:27:48;12.20;;;2.97;;
77876;SDS011;67251;50.844;7.978;2023-04-25T02:30:13;9.20;;;2.83;;
77876;SDS011;67251;50.844;7.978;2023-04-25T02:32:39;8.25;;;2.70;;
77876;SDS011;67251;50.844;7.978;2023-04-25T02:35:06;10.23;;;2.83;;
77876;SDS011;67251;50.844;7.978;2023-04-25T02:37:32;13.07;;;3.47;;
77876;SDS011;67251;50.844;7.978;2023-04-25T02:39:59;6.88;;;2.50;;
77876;SDS011;67251;50.844;7.978;2023-04-25T02:42:25;6.15;;;2.47;;
77876;SDS011;67251;50.844;7.978;2023-04-25T02:44:51;9.30;;;2.50;;
77876;SDS011;67251;50.844;7.978;2023-04-25T02:47:16;7.90;;;3.10;;
77876;SDS011;67251;50.844;7.978;2023-04-25T02:49:45;8.00;;;2.83;;
77876;SDS011;67251;50.844;7.978;2023-04-25T02:52:11;8.45;;;2.58;;
77876;SDS011;67251;50.844;7.978;2023-04-25T02:54:37;8.70;;;2.67;;
77876;SDS011;67251;50.844;7.978;2023-04-25T02:57:03;9.75;;;3.03;;
77876;SDS011;67251;50.844;7.978;2023-04-25T02:59:28;8.27;;;3.05;;
77876;SDS011;67251;50.844;7.978;2023-04-25T03:01:54;7.88;;;2.70;;
77876;SDS011;67251;50.844;7.978;2023-04-25T03:04:19;9.40;;;2.85;;
77876;SDS011;67251;50.844;7.978;2023-04-25T03:06:49;11.75;;;3.03;;
77876;SDS011;67251;50.844;7.978;2023-04-25T03:09:18;7.60;;;2.97;;
77876;SDS011;67251;50.844;7.978;2023-04-25T03:11:44;8.55;;;2.67;;
77876;SDS011;67251;50.844;7.978;2023-04-25T03:14:10;8.95;;;2.78;;
77876;SDS011;67251;50.844;7.978;2023-04-25T03:16:35;9.13;;;2.95;;
77876;SDS011;67251;50.844;7.978;2023-04-25T03:19:01;8.25;;;3.50;;
77876;SDS011;67251;50.844;7.978;2023-04-25T03:21:28;8.55;;;2.90;;
77876;SDS011;67251;50.844;7.978;2023-04-25T03:23:53;8.75;;;2.90;;
77876;SDS011;67251;50.844;7.978;2023-04-25T03:26:18;8.13;;;2.63;;
77876;SDS011;67251;50.844;7.978;2023-04-25T03:28:45;7.32;;;2.60;;
77876;SDS011;67251;50.844;7.978;2023-04-25T03:31:11;9.07;;;3.08;;
77876;SDS011;67251;50.844;7.978;2023-04-25T03:33:38;9.35;;;2.78;;
77876;SDS011;67251;50.844;7.978;2023-04-25T03:36:03;10.63;;;2.78;;
77876;SDS011;67251;50.844;7.978;2023-04-25T03:38:29;7.47;;;2.45;;
77876;SDS011;67251;50.844;7.978;2023-04-25T03:40:54;13.75;;;3.55;;
77876;SDS011;67251;50.844;7.978;2023-04-25T03:43:21;9.93;;;3.33;;
77876;SDS011;67251;50.844;7.978;2023-04-25T03:45:46;10.10;;;2.75;;
77876;SDS011;67251;50.844;7.978;2023-04-25T03:48:12;11.48;;;3.60;;
77876;SDS011;67251;50.844;7.978;2023-04-25T03:50:38;12.30;;;3.17;;
77876;SDS011;67251;50.844;7.978;2023-04-25T03:53:03;10.50;;;3.53;;
77876;SDS011;67251;50.844;7.978;2023-04-25T03:55:28;10.00;;;3.25;;
77876;SDS011;67251;50.844;7.978;2023-04-25T03:57:54;8.95;;;3.10;;
77876;SDS011;67251;50.844;7.978;2023-04-25T04:00:19;12.85;;;3.45;;
77876;SDS011;67251;50.844;7.978;2023-04-25T04:02:46;8.70;;;2.78;;
77876;SDS011;67251;50.844;7.978;2023-04-25T04:05:11;7.75;;;2.88;;
77876;SDS011;67251;50.844;7.978;2023-04-25T04:07:37;8.43;;;2.67;;
77876;SDS011;67251;50.844;7.978;2023-04-25T04:10:08;10.65;;;3.45;;
77876;SDS011;67251;50.844;7.978;2023-04-25T04:12:34;8.55;;;2.58;;
77876;SDS011;67251;50.844;7.978;2023-04-25T04:15:01;10.70;;;3.30;;
77876;SDS011;67251;50.844;7.978;2023-04-25T04:17:28;6.65;;;2.53;;
77876;SDS011;67251;50.844;7.978;2023-04-25T04:19:54;8.80;;;3.03;;
77876;SDS011;67251;50.844;7.978;2023-04-25T04:22:21;7.30;;;2.55;;
77876;SDS011;67251;50.844;7.978;2023-04-25T04:24:48;6.18;;;2.78;;
77876;SDS011;67251;50.844;7.978;2023-04-25T04:27:15;10.55;;;3.50;;
77876;SDS011;67251;50.844;7.978;2023-04-25T04:29:42;10.90;;;3.08;;
77876;SDS011;67251;50.844;7.978;2023-04-25T04:32:08;8.60;;;3.03;;
77876;SDS011;67251;50.844;7.978;2023-04-25T04:34:33;11.40;;;3.00;;
77876;SDS011;67251;50.844;7.978;2023-04-25T04:37:00;8.63;;;3.10;;
77876;SDS011;67251;50.844;7.978;2023-04-25T04:39:25;7.93;;;2.92;;
77876;SDS011;67251;50.844;7.978;2023-04-25T04:41:50;7.47;;;2.53;;
77876;SDS011;67251;50.844;7.978;2023-04-25T04:44:16;12.60;;;3.45;;
77876;SDS011;67251;50.844;7.978;2023-04-25T04:46:41;12.73;;;3.33;;
77876;SDS011;67251;50.844;7.978;2023-04-25T04:49:11;9.73;;;3.53;;
77876;SDS011;67251;50.844;7.978;2023-04-25T04:54:03;7.70;;;2.50;;
77876;SDS011;67251;50.844;7.978;2023-04-25T04:56:30;12.15;;;2.95;;
77876;SDS011;67251;50.844;7.978;2023-04-25T04:58:57;11.35;;;3.08;;
77876;SDS011;67251;50.844;7.978;2023-04-25T05:01:23;10.23;;;3.05;;
77876;SDS011;67251;50.844;7.978;2023-04-25T05:03:49;11.27;;;3.60;;
77876;SDS011;67251;50.844;7.978;2023-04-25T05:06:15;11.07;;;3.90;;
77876;SDS011;67251;50.844;7.978;2023-04-25T05:08:41;12.02;;;3.58;;
77876;SDS011;67251;50.844;7.978;2023-04-25T05:11:07;8.50;;;2.90;;
77876;SDS011;67251;50.844;7.978;2023-04-25T05:13:32;12.07;;;3.35;;
77876;SDS011;67251;50.844;7.978;2023-04-25T05:15:58;9.60;;;3.05;;
77876;SDS011;67251;50.844;7.978;2023-04-25T05:18:23;8.57;;;3.58;;
77876;SDS011;67251;50.844;7.978;2023-04-25T05:20:48;12.75;;;3.25;;
77876;SDS011;67251;50.844;7.978;2023-04-25T05:23:14;8.82;;;3.20;;
77876;SDS011;67251;50.844;7.978;2023-04-25T05:25:40;8.65;;;3.17;;
77876;SDS011;67251;50.844;7.978;2023-04-25T05:28:05;10.13;;;3.20;;
77876;SDS011;67251;50.844;7.978;2023-04-25T05:30:31;10.32;;;3.30;;
77876;SDS011;67251;50.844;7.978;2023-04-25T05:32:56;11.85;;;3.53;;
77876;SDS011;67251;50.844;7.978;2023-04-25T05:35:22;7.53;;;3.10;;
77876;SDS011;67251;50.844;7.978;2023-04-25T05:37:47;12.85;;;3.28;;
77876;SDS011;67251;50.844;7.978;2023-04-25T05:40:12;15.25;;;4.53;;
77876;SDS011;67251;50.844;7.978;2023-04-25T05:42:38;9.07;;;3.10;;
77876;SDS011;67251;50.844;7.978;2023-04-25T05:45:03;9.05;;;3.25;;
77876;SDS011;67251;50.844;7.978;2023-04-25T05:47:29;11.10;;;3.47;;
77876;SDS011;67251;50.844;7.978;2023-04-25T05:49:55;14.27;;;3.95;;
77876;SDS011;67251;50.844;7.978;2023-04-25T05:52:20;9.75;;;3.42;;
77876;SDS011;67251;50.844;7.978;2023-04-25T05:54:46;11.40;;;3.03;;
77876;SDS011;67251;50.844;7.978;2023-04-25T05:57:24;10.07;;;3.35;;
77876;SDS011;67251;50.844;7.978;2023-04-25T05:59:50;10.95;;;3.72;;
77876;SDS011;67251;50.844;7.978;2023-04-25T06:02:18;10.13;;;4.50;;
77876;SDS011;67251;50.844;7.978;2023-04-25T06:04:44;11.85;;;4.03;;
77876;SDS011;67251;50.844;7.978;2023-04-25T06:07:09;11.40;;;4.00;;
77876;SDS011;67251;50.844;7.978;2023-04-25T06:09:35;11.60;;;3.92;;
77876;SDS011;67251;50.844;7.978;2023-04-25T06:12:01;11.30;;;4.15;;
77876;SDS011;67251;50.844;7.978;2023-04-25T06:14:27;15.38;;;4.65;;
77876;SDS011;67251;50.844;7.978;2023-04-25T06:16:52;12.73;;;4.53;;
77876;SDS011;67251;50.844;7.978;2023-04-25T06:19:18;15.32;;;4.55;;
77876;SDS011;67251;50.844;7.978;2023-04-25T06:21:44;15.18;;;4.40;;
77876;SDS011;67251;50.844;7.978;2023-04-25T06:24:09;14.68;;;4.60;;
77876;SDS011;67251;50.844;7.978;2023-04-25T06:26:34;11.63;;;3.88;;
77876;SDS011;67251;50.844;7.978;2023-04-25T06:29:00;10.93;;;4.15;;
77876;SDS011;67251;50.844;7.978;2023-04-25T06:31:25;11.57;;;4.47;;
77876;SDS011;67251;50.844;7.978;2023-04-25T06:33:51;12.88;;;4.22;;
77876;SDS011;67251;50.844;7.978;2023-04-25T06:36:19;11.68;;;3.95;;
77876;SDS011;67251;50.844;7.978;2023-04-25T06:38:49;11.52;;;4.32;;
77876;SDS011;67251;50.844;7.978;2023-04-25T06:41:15;11.68;;;3.97;;
77876;SDS011;67251;50.844;7.978;2023-04-25T06:43:41;12.25;;;4.15;;
77876;SDS011;67251;50.844;7.978;2023-04-25T06:46:06;14.32;;;4.22;;
77876;SDS011;67251;50.844;7.978;2023-04-25T06:48:31;8.57;;;3.08;;
77876;SDS011;67251;50.844;7.978;2023-04-25T06:50:57;11.48;;;4.25;;
77876;SDS011;67251;50.844;7.978;2023-04-25T06:53:22;8.65;;;3.05;;
77876;SDS011;67251;50.844;7.978;2023-04-25T06:55:47;10.57;;;3.92;;
77876;SDS011;67251;50.844;7.978;2023-04-25T06:58:13;11.77;;;4.03;;
77876;SDS011;67251;50.844;7.978;2023-04-25T07:00:38;9.43;;;3.42;;
77876;SDS011;67251;50.844;7.978;2023-04-25T07:03:03;12.73;;;3.90;;
77876;SDS011;67251;50.844;7.978;2023-04-25T07:05:29;13.23;;;4.43;;
77876;SDS011;67251;50.844;7.978;2023-04-25T07:07:54;10.02;;;3.88;;
77876;SDS011;67251;50.844;7.978;2023-04-25T07:10:20;13.63;;;4.07;;
77876;SDS011;67251;50.844;7.978;2023-04-25T07:12:46;11.35;;;4.30;;
77876;SDS011;67251;50.844;7.978;2023-04-25T07:15:11;9.13;;;3.40;;
77876;SDS011;67251;50.844;7.978;2023-04-25T07:17:37;11.00;;;4.05;;
77876;SDS011;67251;50.844;7.978;2023-04-25T07:20:03;10.10;;;3.58;;
77876;SDS011;67251;50.844;7.978;2023-04-25T07:22:30;9.45;;;3.72;;
77876;SDS011;67251;50.844;7.978;2023-04-25T07:24:56;4.20;;;1.45;;
77876;SDS011;67251;50.844;7.978;2023-04-25T07:27:22;4.20;;;1.15;;
77876;SDS011;67251;50.844;7.978;2023-04-25T07:29:47;6.45;;;1.27;;
77876;SDS011;67251;50.844;7.978;2023-04-25T07:32:12;5.35;;;1.35;;
77876;SDS011;67251;50.844;7.978;2023-04-25T07:34:38;4.93;;;1.70;;
77876;SDS011;67251;50.844;7.978;2023-04-25T07:37:04;6.05;;;1.50;;
77876;SDS011;67251;50.844;7.978;2023-04-25T07:39:30;4.30;;;1.58;;
77876;SDS011;67251;50.844;7.978;2023-04-25T07:41:56;5.65;;;1.38;;
77876;SDS011;67251;50.844;7.978;2023-04-25T07:44:23;6.38;;;1.42;;
77876;SDS011;67251;50.844;7.978;2023-04-25T07:46:48;6.93;;;1.52;;
77876;SDS011;67251;50.844;7.978;2023-04-25T07:49:14;6.50;;;1.80;;
77876;SDS011;67251;50.844;7.978;2023-04-25T07:51:40;4.82;;;1.45;;
77876;SDS011;67251;50.844;7.978;2023-04-25T07:54:06;7.43;;;1.80;;
77876;SDS011;67251;50.844;7.978;2023-04-25T07:56:32;7.65;;;1.90;;
77876;SDS011;67251;50.844;7.978;2023-04-25T07:58:57;9.38;;;1.58;;
77876;SDS011;67251;50.844;7.978;2023-04-25T08:01:23;7.82;;;1.65;;
77876;SDS011;67251;50.844;7.978;2023-04-25T08:03:48;6.00;;;1.63;;
77876;SDS011;67251;50.844;7.978;2023-04-25T08:06:14;6.28;;;1.70;;
77876;SDS011;67251;50.844;7.978;2023-04-25T08:08:40;6.90;;;2.42;;
77876;SDS011;67251;50.844;7.978;2023-04-25T08:11:05;4.38;;;1.15;;
77876;SDS011;67251;50.844;7.978;2023-04-25T08:13:30;10.73;;;1.73;;
77876;SDS011;67251;50.844;7.978;2023-04-25T08:15:56;5.85;;;1.52;;
77876;SDS011;67251;50.844;7.978;2023-04-25T08:18:21;9.55;;;1.67;;
77876;SDS011;67251;50.844;7.978;2023-04-25T08:20:46;5.80;;;1.50;;
77876;SDS011;67251;50.844;7.978;2023-04-25T08:23:12;8.20;;;1.15;;
77876;SDS011;67251;50.844;7.978;2023-04-25T08:25:38;6.70;;;1.92;;
77876;SDS011;67251;50.844;7.978;2023-04-25T08:28:03;5.20;;;1.67;;
77876;SDS011;67251;50.844;7.978;2023-04-25T08:30:29;3.67;;;1.38;;
77876;SDS011;67251;50.844;7.978;2023-04-25T08:32:54;4.30;;;1.52;;
77876;SDS011;67251;50.844;7.978;2023-04-25T08:35:20;6.57;;;1.67;;
77876;SDS011;67251;50.844;7.978;2023-04-25T08:37:45;8.15;;;1.67;;
77876;SDS011;67251;50.844;7.978;2023-04-25T08:40:11;3.67;;;1.20;;
77876;SDS011;67251;50.844;7.978;2023-04-25T08:42:39;4.22;;;1.58;;
77876;SDS011;67251;50.844;7.978;2023-04-25T08:45:06;7.80;;;1.83;;
77876;SDS011;67251;50.844;7.978;2023-04-25T08:47:33;5.78;;;1.67;;
77876;SDS011;67251;50.844;7.978;2023-04-25T08:49:59;6.72;;;1.50;;
77876;SDS011;67251;50.844;7.978;2023-04-25T08:52:27;5.60;;;1.70;;
77876;SDS011;67251;50.844;7.978;2023-04-25T08:54:55;7.90;;;1.58;;
77876;SDS011;67251;50.844;7.978;2023-04-25T08:57:22;5.72;;;1.73;;
77876;SDS011;67251;50.844;7.978;2023-04-25T08:59:49;4.13;;;1.65;;
77876;SDS011;67251;50.844;7.978;2023-04-25T09:02:14;7.60;;;1.63;;
77876;SDS011;67251;50.844;7.978;2023-04-25T09:04:44;4.97;;;1.60;;
77876;SDS011;67251;50.844;7.978;2023-04-25T09:07:09;4.38;;;1.50;;
77876;SDS011;67251;50.844;7.978;2023-04-25T09:09:35;6.80;;;1.50;;
77876;SDS011;67251;50.844;7.978;2023-04-25T09:12:01;7.40;;;1.70;;
77876;SDS011;67251;50.844;7.978;2023-04-25T09:14:26;3.90;;;1.35;;
77876;SDS011;67251;50.844;7.978;2023-04-25T09:21:57;4.30;;;1.63;;
77876;SDS011;67251;50.844;7.978;2023-04-25T09:24:32;4.75;;;1.50;;
77876;SDS011;67251;50.844;7.978;2023-04-25T09:27:05;5.30;;;1.40;;
77876;SDS011;67251;50.844;7.978;2023-04-25T09:29:35;5.30;;;1.38;;
77876;SDS011;67251;50.844;7.978;2023-04-25T09:32:21;4.82;;;1.70;;
77876;SDS011;67251;50.844;7.978;2023-04-25T09:34:49;4.63;;;1.42;;
77876;SDS011;67251;50.844;7.978;2023-04-25T09:37:23;6.00;;;1.70;;
77876;SDS011;67251;50.844;7.978;2023-04-25T09:39:59;8.27;;;1.98;;
77876;SDS011;67251;50.844;7.978;2023-04-25T09:42:28;4.72;;;1.50;;
77876;SDS011;67251;50.844;7.978;2023-04-25T09:44:56;4.65;;;1.52;;
77876;SDS011;67251;50.844;7.978;2023-04-25T09:47:23;5.97;;;1.60;;
77876;SDS011;67251;50.844;7.978;2023-04-25T09:49:50;5.20;;;1.63;;
77876;SDS011;67251;50.844;7.978;2023-04-25T09:52:17;7.28;;;1.98;;
77876;SDS011;67251;50.844;7.978;2023-04-25T09:54:44;5.88;;;1.60;;
77876;SDS011;67251;50.844;7.978;2023-04-25T09:57:11;7.10;;;1.70;;
77876;SDS011;67251;50.844;7.978;2023-04-25T09:59:51;4.38;;;1.75;;
77876;SDS011;67251;50.844;7.978;2023-04-25T10:02:21;8.43;;;1.88;;
77876;SDS011;67251;50.844;7.978;2023-04-25T10:04:52;5.72;;;2.13;;
77876;SDS011;67251;50.844;7.978;2023-04-25T10:07:20;5.82;;;1.70;;
77876;SDS011;67251;50.844;7.978;2023-04-25T10:09:48;4.93;;;1.48;;
77876;SDS011;67251;50.844;7.978;2023-04-25T10:12:17;6.47;;;1.98;;
77876;SDS011;67251;50.844;7.978;2023-04-25T10:14:43;6.20;;;1.85;;
77876;SDS011;67251;50.844;7.978;2023-04-25T10:17:10;6.38;;;1.83;;
77876;SDS011;67251;50.844;7.978;2023-04-25T10:19:39;5.13;;;1.48;;
77876;SDS011;67251;50.844;7.978;2023-04-25T10:22:08;6.68;;;2.17;;
77876;SDS011;67251;50.844;7.978;2023-04-25T10:24:39;6.93;;;1.63;;
77876;SDS011;67251;50.844;7.978;2023-04-25T10:27:05;6.32;;;1.60;;
77876;SDS011;67251;50.844;7.978;2023-04-25T10:29:31;7.43;;;1.55;;
77876;SDS011;67251;50.844;7.978;2023-04-25T10:31:57;4.40;;;1.63;;
77876;SDS011;67251;50.844;7.978;2023-04-25T10:34:43;7.90;;;1.60;;
77876;SDS011;67251;50.844;7.978;2023-04-25T10:37:12;6.88;;;1.65;;
77876;SDS011;67251;50.844;7.978;2023-04-25T10:39:38;4.80;;;1.45;;
77876;SDS011;67251;50.844;7.978;2023-04-25T10:42:07;5.10;;;1.58;;
77876;SDS011;67251;50.844;7.978;2023-04-25T10:44:33;5.00;;;1.60;;
77876;SDS011;67251;50.844;7.978;2023-04-25T10:47:00;5.03;;;1.30;;
77876;SDS011;67251;50.844;7.978;2023-04-25T10:49:28;5.75;;;1.67;;
77876;SDS011;67251;50.844;7.978;2023-04-25T10:52:11;4.40;;;1.33;;
77876;SDS011;67251;50.844;7.978;2023-04-25T10:57:35;6.93;;;1.63;;
77876;SDS011;67251;50.844;7.978;2023-04-25T11:00:11;7.93;;;1.80;;
77876;SDS011;67251;50.844;7.978;2023-04-25T11:02:48;10.75;;;1.52;;
77876;SDS011;67251;50.844;7.978;2023-04-25T11:07:58;3.60;;;1.40;;
77876;SDS011;67251;50.844;7.978;2023-04-25T11:10:27;4.07;;;1.83;;
77876;SDS011;67251;50.844;7.978;2023-04-25T11:12:54;6.75;;;1.75;;
77876;SDS011;67251;50.844;7.978;2023-04-25T11:15:20;4.68;;;1.45;;
77876;SDS011;67251;50.844;7.978;2023-04-25T11:17:45;7.20;;;1.77;;
77876;SDS011;67251;50.844;7.978;2023-04-25T11:20:11;5.10;;;1.38;;
77876;SDS011;67251;50.844;7.978;2023-04-25T11:22:39;6.80;;;1.40;;
77876;SDS011;67251;50.844;7.978;2023-04-25T11:25:08;3.90;;;1.17;;
77876;SDS011;67251;50.844;7.978;2023-04-25T11:27:57;5.80;;;1.63;;
77876;SDS011;67251;50.844;7.978;2023-04-25T11:30:26;5.35;;;2.00;;
77876;SDS011;67251;50.844;7.978;2023-04-25T11:32:52;6.57;;;1.67;;
77876;SDS011;67251;50.844;7.978;2023-04-25T11:35:18;5.57;;;1.52;;
77876;SDS011;67251;50.844;7.978;2023-04-25T11:37:45;5.82;;;1.35;;
77876;SDS011;67251;50.844;7.978;2023-04-25T11:40:11;7.32;;;1.50;;
77876;SDS011;67251;50.844;7.978;2023-04-25T11:42:43;5.38;;;1.75;;
77876;SDS011;67251;50.844;7.978;2023-04-25T11:45:09;5.70;;;1.35;;
77876;SDS011;67251;50.844;7.978;2023-04-25T11:47:35;5.97;;;1.45;;
77876;SDS011;67251;50.844;7.978;2023-04-25T11:50:02;4.70;;;1.60;;
77876;SDS011;67251;50.844;7.978;2023-04-25T11:52:39;8.10;;;1.38;;
77876;SDS011;67251;50.844;7.978;2023-04-25T11:55:07;5.63;;;1.40;;
77876;SDS011;67251;50.844;7.978;2023-04-25T11:57:34;5.07;;;1.08;;
77876;SDS011;67251;50.844;7.978;2023-04-25T12:00:32;6.40;;;1.40;;
77876;SDS011;67251;50.844;7.978;2023-04-25T12:02:52;3.75;;;1.27;;
77876;SDS011;67251;50.844;7.978;2023-04-25T12:05:19;5.65;;;1.20;;
77876;SDS011;67251;50.844;7.978;2023-04-25T12:07:45;6.53;;;1.00;;
77876;SDS011;67251;50.844;7.978;2023-04-25T12:10:12;4.40;;;1.33;;
77876;SDS011;67251;50.844;7.978;2023-04-25T12:12:42;4.85;;;1.20;;
77876;SDS011;67251;50.844;7.978;2023-04-25T12:17:41;3.30;;;0.98;;
77876;SDS011;67251;50.844;7.978;2023-04-25T12:20:11;2.42;;;1.00;;
77876;SDS011;67251;50.844;7.978;2023-04-25T12:22:40;5.70;;;1.65;;
77876;SDS011;67251;50.844;7.978;2023-04-25T12:25:13;3.50;;;1.05;;
77876;SDS011;67251;50.844;7.978;2023-04-25T12:28:14;7.18;;;1.63;;
77876;SDS011;67251;50.844;7.978;2023-04-25T12:30:57;3.67;;;1.25;;
77876;SDS011;67251;50.844;7.978;2023-04-25T12:33:33;5.85;;;1.23;;
77876;SDS011;67251;50.844;7.978;2023-04-25T12:36:00;4.55;;;1.30;;
77876;SDS011;67251;50.844;7.978;2023-04-25T12:38:37;3.80;;;1.10;;
77876;SDS011;67251;50.844;7.978;2023-04-25T12:41:03;2.58;;;1.00;;
77876;SDS011;67251;50.844;7.978;2023-04-25T12:43:29;5.03;;;1.25;;
77876;SDS011;67251;50.844;7.978;2023-04-25T12:45:55;3.28;;;1.08;;
77876;SDS011;67251;50.844;7.978;2023-04-25T12:48:21;4.07;;;1.52;;
77876;SDS011;67251;50.844;7.978;2023-04-25T12:50:48;3.33;;;1.10;;
77876;SDS011;67251;50.844;7.978;2023-04-25T12:53:15;2.53;;;0.63;;
77876;SDS011;67251;50.844;7.978;2023-04-25T12:58:16;4.38;;;1.13;;
77876;SDS011;67251;50.844;7.978;2023-04-25T13:00:42;5.43;;;1.13;;
77876;SDS011;67251;50.844;7.978;2023-04-25T13:03:08;3.25;;;1.00;;
77876;SDS011;67251;50.844;7.978;2023-04-25T13:05:36;3.53;;;1.20;;
77876;SDS011;67251;50.844;7.978;2023-04-25T13:08:01;3.15;;;1.05;;
77876;SDS011;67251;50.844;7.978;2023-04-25T13:10:27;4.05;;;1.20;;
77876;SDS011;67251;50.844;7.978;2023-04-25T13:12:52;3.60;;;1.10;;
77876;SDS011;67251;50.844;7.978;2023-04-25T13:15:17;5.47;;;1.20;;
77876;SDS011;67251;50.844;7.978;2023-04-25T13:17:43;5.40;;;0.93;;
77876;SDS011;67251;50.844;7.978;2023-04-25T13:20:08;4.38;;;1.20;;
77876;SDS011;67251;50.844;7.978;2023-04-25T13:22:38;7.07;;;1.38;;
77876;SDS011;67251;50.844;7.978;2023-04-25T13:25:04;4.07;;;1.25;;
77876;SDS011;67251;50.844;7.978;2023-04-25T13:27:31;3.38;;;1.20;;
77876;SDS011;67251;50.844;7.978;2023-04-25T13:29:58;3.47;;;1.20;;
77876;SDS011;67251;50.844;7.978;2023-04-25T13:32:25;5.32;;;1.20;;
77876;SDS011;67251;50.844;7.978;2023-04-25T13:34:51;4.40;;;1.25;;
77876;SDS011;67251;50.844;7.978;2023-04-25T13:37:16;5.72;;;1.13;;
77876;SDS011;67251;50.844;7.978;2023-04-25T13:39:42;4.38;;;1.27;;
77876;SDS011;67251;50.844;7.978;2023-04-25T13:42:07;5.45;;;1.33;;
77876;SDS011;67251;50.844;7.978;2023-04-25T13:44:32;4.45;;;1.08;;
77876;SDS011;67251;50.844;7.978;2023-04-25T13:46:58;4.40;;;1.10;;
77876;SDS011;67251;50.844;7.978;2023-04-25T13:49:25;5.40;;;1.65;;
77876;SDS011;67251;50.844;7.978;2023-04-25T13:51:51;4.55;;;1.10;;
77876;SDS011;67251;50.844;7.978;2023-04-25T13:54:16;5.57;;;1.23;;
77876;SDS011;67251;50.844;7.978;2023-04-25T13:56:41;4.70;;;1.30;;
77876;SDS011;67251;50.844;7.978;2023-04-25T13:59:07;4.75;;;1.48;;
77876;SDS011;67251;50.844;7.978;2023-04-25T14:01:32;7.28;;;1.70;;
77876;SDS011;67251;50.844;7.978;2023-04-25T14:04:00;6.93;;;1.20;;
77876;SDS011;67251;50.844;7.978;2023-04-25T14:06:25;3.40;;;0.95;;
77876;SDS011;67251;50.844;7.978;2023-04-25T14:08:52;5.82;;;1.20;;
77876;SDS011;67251;50.844;7.978;2023-04-25T14:11:18;6.68;;;1.13;;
77876;SDS011;67251;50.844;7.978;2023-04-25T14:13:44;2.20;;;0.90;;
77876;SDS011;67251;50.844;7.978;2023-04-25T14:16:10;5.05;;;1.20;;
77876;SDS011;67251;50.844;7.978;2023-04-25T14:18:35;4.47;;;1.20;;
77876;SDS011;67251;50.844;7.978;2023-04-25T14:21:01;4.05;;;1.05;;
77876;SDS011;67251;50.844;7.978;2023-04-25T14:23:26;4.97;;;1.10;;
77876;SDS011;67251;50.844;7.978;2023-04-25T14:25:51;3.45;;;0.98;;
77876;SDS011;67251;50.844;7.978;2023-04-25T14:28:17;4.93;;;1.10;;
77876;SDS011;67251;50.844;7.978;2023-04-25T14:30:42;5.40;;;1.88;;
77876;SDS011;67251;50.844;7.978;2023-04-25T14:33:07;4.85;;;1.27;;
77876;SDS011;67251;50.844;7.978;2023-04-25T14:35:33;4.97;;;1.30;;
77876;SDS011;67251;50.844;7.978;2023-04-25T14:37:59;5.82;;;1.30;;
77876;SDS011;67251;50.844;7.978;2023-04-25T14:40:25;3.83;;;1.27;;
77876;SDS011;67251;50.844;7.978;2023-04-25T14:42:50;4.00;;;1.45;;
77876;SDS011;67251;50.844;7.978;2023-04-25T14:45:16;4.20;;;1.50;;
77876;SDS011;67251;50.844;7.978;2023-04-25T14:47:42;4.55;;;1.20;;
77876;SDS011;67251;50.844;7.978;2023-04-25T14:50:08;5.40;;;1.40;;
77876;SDS011;67251;50.844;7.978;2023-04-25T14:52:34;5.10;;;1.42;;
77876;SDS011;67251;50.844;7.978;2023-04-25T14:54:59;4.43;;;1.10;;
77876;SDS011;67251;50.844;7.978;2023-04-25T14:57:29;3.92;;;1.17;;
77876;SDS011;67251;50.844;7.978;2023-04-25T14:59:55;4.03;;;1.02;;
77876;SDS011;67251;50.844;7.978;2023-04-25T15:02:20;5.72;;;1.20;;
77876;SDS011;67251;50.844;7.978;2023-04-25T15:04:46;5.03;;;1.35;;